createdAt,value
2016-09-13T00:00:55.036Z,0
2016-09-13T00:01:54.744Z,0
2016-09-13T00:02:54.780Z,0
2016-09-13T00:03:54.790Z,0
2016-09-13T00:04:54.825Z,0
2016-09-13T00:05:54.839Z,0
2016-09-13T00:06:54.556Z,0
2016-09-13T00:07:54.657Z,0
2016-09-13T00:08:54.591Z,0
2016-09-13T00:09:55.243Z,0
2016-09-13T00:10:55.276Z,0
2016-09-13T00:11:55.003Z,0
2016-09-13T00:12:55.001Z,0
2016-09-13T00:13:55.011Z,0
2016-09-13T00:14:55.061Z,0
2016-09-13T00:15:54.763Z,0
2016-09-13T00:16:54.831Z,0
2016-09-13T00:17:55.140Z,0
2016-09-13T00:18:54.833Z,0
2016-09-13T00:19:54.557Z,0
2016-09-13T00:20:55.263Z,0
2016-09-13T00:21:55.562Z,0
2016-09-13T00:22:54.948Z,0
2016-09-13T00:23:55.601Z,0
2016-09-13T00:24:55.616Z,0
2016-09-13T00:25:55.330Z,0
2016-09-13T00:26:55.675Z,0
2016-09-13T00:27:55.390Z,0
2016-09-13T00:28:55.709Z,0
2016-09-13T00:29:54.815Z,0
2016-09-13T00:30:55.791Z,0
2016-09-13T00:31:55.540Z,0
2016-09-13T00:32:55.811Z,0
2016-09-13T00:33:55.909Z,0
2016-09-13T00:34:55.543Z,0
2016-09-13T00:35:55.279Z,0
2016-09-13T00:36:55.597Z,0
2016-09-13T00:37:55.942Z,0
2016-09-13T00:38:54.762Z,0
2016-09-13T00:39:55.978Z,0
2016-09-13T00:40:55.399Z,0
2016-09-13T00:41:55.735Z,0
2016-09-13T00:42:56.060Z,0
2016-09-13T00:43:55.766Z,0
2016-09-13T00:44:55.796Z,0
2016-09-13T00:45:56.130Z,0
2016-09-13T00:46:55.928Z,0
2016-09-13T00:47:55.874Z,0
2016-09-13T00:48:55.904Z,0
2016-09-13T00:49:56.019Z,0
2016-09-13T00:50:55.626Z,0
2016-09-13T00:51:55.686Z,0
2016-09-13T00:52:55.698Z,0
2016-09-13T00:53:55.704Z,0
2016-09-13T00:54:56.336Z,0
2016-09-13T00:55:55.767Z,0
2016-09-13T00:56:56.201Z,0
2016-09-13T00:57:55.883Z,0
2016-09-13T00:58:56.130Z,0
2016-09-13T00:59:56.507Z,0
2016-09-13T01:00:56.197Z,0
2016-09-13T01:01:56.197Z,0
2016-09-13T01:02:55.924Z,0
2016-09-13T01:03:56.601Z,0
2016-09-13T01:04:55.666Z,0
2016-09-13T01:05:56.300Z,0
2016-09-13T01:06:56.337Z,0
2016-09-13T01:07:56.407Z,0
2016-09-13T01:08:56.076Z,0
2016-09-13T01:09:56.108Z,0
2016-09-13T01:10:56.110Z,0
2016-09-13T01:11:56.142Z,0
2016-09-13T01:12:56.460Z,0
2016-09-13T01:13:56.533Z,0
2016-09-13T01:14:56.226Z,0
2016-09-13T01:15:55.925Z,0
2016-09-13T01:16:56.876Z,0
2016-09-13T01:17:56.632Z,0
2016-09-13T01:18:57.001Z,0
2016-09-13T01:19:56.672Z,0
2016-09-13T01:20:57.004Z,0
2016-09-13T01:21:56.091Z,0
2016-09-13T01:22:56.461Z,0
2016-09-13T01:23:57.074Z,0
2016-09-13T01:24:56.771Z,0
2016-09-13T01:25:56.473Z,0
2016-09-13T01:26:57.116Z,0
2016-09-13T01:27:56.966Z,0
2016-09-13T01:28:56.577Z,0
2016-09-13T01:29:56.585Z,0
2016-09-13T01:30:56.948Z,0
2016-09-13T01:31:57.322Z,0
2016-09-13T01:32:56.652Z,0
2016-09-13T01:33:57.313Z,0
2016-09-13T01:34:57.335Z,0
2016-09-13T01:35:56.405Z,0
2016-09-13T01:36:57.061Z,0
2016-09-13T01:37:56.788Z,0
2016-09-13T01:38:56.486Z,0
2016-09-13T01:39:57.135Z,0
2016-09-13T01:40:56.863Z,0
2016-09-13T01:41:57.181Z,0
2016-09-13T01:42:57.552Z,0
2016-09-13T01:43:57.557Z,0
2016-09-13T01:44:56.946Z,0
2016-09-13T01:45:57.282Z,0
2016-09-13T01:46:57.298Z,0
2016-09-13T01:47:57.646Z,0
2016-09-13T01:48:57.356Z,0
2016-09-13T01:49:57.387Z,0
2016-09-13T01:50:57.766Z,0
2016-09-13T01:51:57.445Z,0
2016-09-13T01:52:57.750Z,0
2016-09-13T01:53:57.160Z,0
2016-09-13T01:54:57.205Z,0
2016-09-13T01:55:56.917Z,0
2016-09-13T01:56:57.547Z,0
2016-09-13T01:57:57.902Z,0
2016-09-13T01:58:57.276Z,0
2016-09-13T01:59:57.947Z,0
2016-09-13T02:00:57.642Z,0
2016-09-13T02:01:57.705Z,0
2016-09-13T02:02:57.797Z,0
2016-09-13T02:03:57.717Z,0
2016-09-13T02:04:57.756Z,0
2016-09-13T02:05:57.288Z,0
2016-09-13T02:06:57.537Z,0
2016-09-13T02:07:58.195Z,0
2016-09-13T02:08:57.535Z,0
2016-09-13T02:09:58.186Z,0
2016-09-13T02:10:58.222Z,0
2016-09-13T02:11:57.651Z,0
2016-09-13T02:12:57.936Z,0
2016-09-13T02:13:57.964Z,0
2016-09-13T02:14:57.721Z,0
2016-09-13T02:15:57.743Z,0
2016-09-13T02:16:58.370Z,0
2016-09-13T02:17:58.051Z,0
2016-09-13T02:18:58.085Z,0
2016-09-13T02:19:58.125Z,0
2016-09-13T02:20:58.437Z,0
2016-09-13T02:21:58.464Z,0
2016-09-13T02:22:57.947Z,0
2016-09-13T02:23:58.224Z,0
2016-09-13T02:24:58.539Z,0
2016-09-13T02:25:58.257Z,0
2016-09-13T02:26:58.293Z,0
2016-09-13T02:27:57.992Z,0
2016-09-13T02:28:58.383Z,0
2016-09-13T02:29:58.096Z,0
2016-09-13T02:30:58.066Z,0
2016-09-13T02:31:58.402Z,0
2016-09-13T02:32:58.088Z,0
2016-09-13T02:33:58.787Z,0
2016-09-13T02:34:58.469Z,0
2016-09-13T02:35:58.498Z,0
2016-09-13T02:36:58.566Z,0
2016-09-13T02:37:58.556Z,0
2016-09-13T02:38:58.575Z,0
2016-09-13T02:39:58.917Z,0
2016-09-13T02:40:59.002Z,0
2016-09-13T02:41:58.944Z,0
2016-09-13T02:42:58.025Z,0
2016-09-13T02:43:58.690Z,0
2016-09-13T02:44:58.712Z,0
2016-09-13T02:45:58.423Z,0
2016-09-13T02:46:58.751Z,0
2016-09-13T02:47:58.471Z,0
2016-09-13T02:48:58.175Z,0
2016-09-13T02:49:59.237Z,0
2016-09-13T02:50:58.543Z,0
2016-09-13T02:51:59.226Z,0
2016-09-13T02:52:58.906Z,0
2016-09-13T02:53:58.926Z,0
2016-09-13T02:54:58.968Z,0
2016-09-13T02:55:58.667Z,0
2016-09-13T02:56:59.006Z,0
2016-09-13T02:57:59.032Z,0
2016-09-13T02:58:59.051Z,0
2016-09-13T02:59:59.077Z,0
2016-09-13T03:00:59.481Z,0
2016-09-13T03:01:59.136Z,0
2016-09-13T03:02:58.846Z,0
2016-09-13T03:03:59.493Z,0
2016-09-13T03:04:58.898Z,0
2016-09-13T03:05:59.225Z,0
2016-09-13T03:06:59.581Z,0
2016-09-13T03:07:59.322Z,0
2016-09-13T03:08:58.976Z,0
2016-09-13T03:09:59.004Z,0
2016-09-13T03:10:59.777Z,0
2016-09-13T03:11:59.414Z,0
2016-09-13T03:12:59.397Z,0
2016-09-13T03:13:59.786Z,0
2016-09-13T03:14:59.897Z,0
2016-09-13T03:15:59.618Z,0
2016-09-13T03:16:59.727Z,0
2016-09-13T03:17:59.600Z,0
2016-09-13T03:18:59.682Z,0
2016-09-13T03:19:59.688Z,0
2016-09-13T03:21:00.174Z,0
2016-09-13T03:22:00.137Z,0
2016-09-13T03:22:59.725Z,0
2016-09-13T03:23:59.443Z,0
2016-09-13T03:25:00.141Z,0
2016-09-13T03:25:59.701Z,0
2016-09-13T03:26:59.724Z,0
2016-09-13T03:27:59.458Z,0
2016-09-13T03:28:59.466Z,0
2016-09-13T03:30:00.159Z,0
2016-09-13T03:30:59.808Z,0
2016-09-13T03:31:59.838Z,0
2016-09-13T03:32:59.992Z,0
2016-09-13T03:33:59.761Z,0
2016-09-13T03:34:59.977Z,0
2016-09-13T03:36:00.350Z,0
2016-09-13T03:37:00.010Z,0
2016-09-13T03:38:00.009Z,0
2016-09-13T03:38:59.706Z,0
2016-09-13T03:40:00.345Z,0
2016-09-13T03:40:59.742Z,0
2016-09-13T03:42:00.255Z,0
2016-09-13T03:42:59.797Z,0
2016-09-13T03:43:59.822Z,0
2016-09-13T03:44:59.636Z,0
2016-09-13T03:45:59.573Z,0
2016-09-13T03:47:00.278Z,0
2016-09-13T03:48:00.598Z,0
2016-09-13T03:49:00.295Z,0
2016-09-13T03:50:00.319Z,0
2016-09-13T03:51:00.601Z,0
2016-09-13T03:52:00.620Z,0
2016-09-13T03:53:00.677Z,0
2016-09-13T03:54:00.372Z,0
2016-09-13T03:55:00.400Z,0
2016-09-13T03:56:00.631Z,0
2016-09-13T03:57:00.755Z,0
2016-09-13T03:58:00.551Z,0
2016-09-13T03:59:00.329Z,0
2016-09-13T04:00:00.944Z,0
2016-09-13T04:01:00.845Z,0
2016-09-13T04:02:00.568Z,0
2016-09-13T04:03:00.379Z,0
2016-09-13T04:04:00.909Z,0
2016-09-13T04:05:00.378Z,0
2016-09-13T04:06:00.460Z,0
2016-09-13T04:07:00.677Z,0
2016-09-13T04:08:00.500Z,0
2016-09-13T04:09:00.735Z,0
2016-09-13T04:10:00.745Z,0
2016-09-13T04:11:01.132Z,0
2016-09-13T04:12:00.174Z,0
2016-09-13T04:13:00.507Z,0
2016-09-13T04:14:01.166Z,0
2016-09-13T04:15:00.873Z,0
2016-09-13T04:16:00.251Z,0
2016-09-13T04:17:01.567Z,0
2016-09-13T04:18:00.619Z,0
2016-09-13T04:19:00.977Z,0
2016-09-13T04:20:00.673Z,0
2016-09-13T04:21:01.007Z,0
2016-09-13T04:22:01.026Z,0
2016-09-13T04:23:00.464Z,0
2016-09-13T04:24:00.787Z,0
2016-09-13T04:25:00.585Z,0
2016-09-13T04:26:00.816Z,0
2016-09-13T04:27:01.478Z,0
2016-09-13T04:28:01.182Z,0
2016-09-13T04:29:01.297Z,0
2016-09-13T04:30:01.230Z,0
2016-09-13T04:31:01.653Z,0
2016-09-13T04:32:01.699Z,0
2016-09-13T04:33:01.307Z,0
2016-09-13T04:34:01.003Z,0
2016-09-13T04:35:01.737Z,0
2016-09-13T04:36:01.681Z,0
2016-09-13T04:37:01.394Z,0
2016-09-13T04:38:01.501Z,0
2016-09-13T04:39:01.126Z,0
2016-09-13T04:40:00.928Z,0
2016-09-13T04:41:01.816Z,0
2016-09-13T04:42:01.211Z,0
2016-09-13T04:43:00.915Z,0
2016-09-13T04:44:01.555Z,0
2016-09-13T04:45:01.281Z,0
2016-09-13T04:46:01.610Z,5
2016-09-13T04:47:01.362Z,5
2016-09-13T04:48:01.661Z,5
2016-09-13T04:49:01.671Z,5
2016-09-13T04:50:01.391Z,5
2016-09-13T04:51:01.095Z,5
2016-09-13T04:52:02.053Z,5
2016-09-13T04:53:02.093Z,10
2016-09-13T04:54:02.170Z,10
2016-09-13T04:55:01.831Z,10
2016-09-13T04:56:01.877Z,10
2016-09-13T04:57:01.591Z,15
2016-09-13T04:58:02.214Z,15
2016-09-13T04:59:01.678Z,15
2016-09-13T05:00:01.628Z,15
2016-09-13T05:01:01.323Z,20
2016-09-13T05:02:02.004Z,20
2016-09-13T05:03:01.999Z,20
2016-09-13T05:04:02.089Z,25
2016-09-13T05:05:02.079Z,25
2016-09-13T05:06:02.051Z,25
2016-09-13T05:07:01.480Z,30
2016-09-13T05:08:02.496Z,30
2016-09-13T05:09:02.141Z,30
2016-09-13T05:10:02.502Z,35
2016-09-13T05:11:02.180Z,35
2016-09-13T05:12:02.219Z,40
2016-09-13T05:13:01.907Z,40
2016-09-13T05:14:01.946Z,45
2016-09-13T05:15:02.289Z,45
2016-09-13T05:16:02.420Z,50
2016-09-13T05:17:02.095Z,50
2016-09-13T05:18:02.665Z,50
2016-09-13T05:19:02.429Z,55
2016-09-13T05:20:02.405Z,60
2016-09-13T05:21:02.163Z,60
2016-09-13T05:22:34.503Z,65
2016-09-13T05:23:02.499Z,65
2016-09-13T05:24:02.795Z,65
2016-09-13T05:25:02.533Z,65
2016-09-13T05:26:02.879Z,70
2016-09-13T05:27:01.959Z,70
2016-09-13T05:28:02.957Z,75
2016-09-13T05:29:02.941Z,75
2016-09-13T05:30:03.035Z,80
2016-09-13T05:31:02.664Z,85
2016-09-13T05:32:02.380Z,85
2016-09-13T05:33:03.046Z,90
2016-09-13T05:34:02.740Z,90
2016-09-13T05:35:02.140Z,95
2016-09-13T05:36:02.458Z,100
2016-09-13T05:37:03.116Z,100
2016-09-13T05:38:02.510Z,105
2016-09-13T05:39:02.540Z,105
2016-09-13T05:40:02.874Z,110
2016-09-13T05:41:02.910Z,115
2016-09-13T05:42:02.300Z,115
2016-09-13T05:43:03.103Z,120
2016-09-13T05:44:02.334Z,125
2016-09-13T05:45:03.410Z,125
2016-09-13T05:46:02.768Z,130
2016-09-13T05:47:02.716Z,135
2016-09-13T05:48:02.748Z,140
2016-09-13T05:49:02.780Z,140
2016-09-13T05:50:03.462Z,150
2016-09-13T05:51:03.133Z,160
2016-09-13T05:52:03.534Z,210
2016-09-13T05:53:02.546Z,260
2016-09-13T05:54:02.897Z,280
2016-09-13T05:55:02.947Z,290
2016-09-13T05:56:03.276Z,295
2016-09-13T05:57:03.708Z,310
2016-09-13T05:58:03.304Z,310
2016-09-13T05:59:03.649Z,325
2016-09-13T06:00:03.816Z,330
2016-09-13T06:01:03.391Z,340
2016-09-13T06:02:03.527Z,350
2016-09-13T06:03:03.650Z,355
2016-09-13T06:04:03.420Z,360
2016-09-13T06:05:03.797Z,370
2016-09-13T06:06:02.880Z,375
2016-09-13T06:07:03.346Z,385
2016-09-13T06:08:03.879Z,390
2016-09-13T06:09:03.660Z,400
2016-09-13T06:10:03.829Z,410
2016-09-13T06:11:03.400Z,415
2016-09-13T06:12:04.070Z,420
2016-09-13T06:13:04.085Z,425
2016-09-13T06:14:04.045Z,435
2016-09-13T06:15:03.165Z,440
2016-09-13T06:16:03.502Z,445
2016-09-13T06:17:03.814Z,465
2016-09-13T06:18:03.951Z,470
2016-09-13T06:19:04.179Z,470
2016-09-13T06:20:03.879Z,475
2016-09-13T06:21:04.224Z,485
2016-09-13T06:22:04.044Z,495
2016-09-13T06:23:03.966Z,505
2016-09-13T06:24:03.718Z,520
2016-09-13T06:25:04.350Z,530
2016-09-13T06:26:04.079Z,535
2016-09-13T06:27:04.074Z,545
2016-09-13T06:28:03.806Z,550
2016-09-13T06:29:04.475Z,555
2016-09-13T06:30:03.378Z,565
2016-09-13T06:31:03.985Z,570
2016-09-13T06:32:04.223Z,570
2016-09-13T06:33:03.930Z,580
2016-09-13T06:34:04.277Z,585
2016-09-13T06:35:04.304Z,595
2016-09-13T06:36:04.813Z,605
2016-09-13T06:37:04.368Z,605
2016-09-13T06:38:04.427Z,620
2016-09-13T06:39:04.446Z,630
2016-09-13T06:40:04.768Z,640
2016-09-13T06:41:04.789Z,645
2016-09-13T06:42:04.500Z,645
2016-09-13T06:43:04.536Z,650
2016-09-13T06:44:04.881Z,650
2016-09-13T06:45:04.418Z,655
2016-09-13T06:46:04.339Z,660
2016-09-13T06:47:05.021Z,665
2016-09-13T06:48:04.990Z,665
2016-09-13T06:49:04.707Z,665
2016-09-13T06:50:04.740Z,695
2016-09-13T06:51:04.782Z,695
2016-09-13T06:52:05.127Z,690
2016-09-13T06:53:05.035Z,705
2016-09-13T06:54:04.031Z,715
2016-09-13T06:55:04.581Z,700
2016-09-13T06:56:04.901Z,710
2016-09-13T06:57:04.314Z,710
2016-09-13T06:58:04.668Z,725
2016-09-13T06:59:05.022Z,730
2016-09-13T07:00:04.721Z,750
2016-09-13T07:01:04.119Z,740
2016-09-13T07:02:05.114Z,735
2016-09-13T07:03:05.447Z,745
2016-09-13T07:04:05.159Z,740
2016-09-13T07:05:05.507Z,750
2016-09-13T07:06:05.269Z,770
2016-09-13T07:07:05.240Z,775
2016-09-13T07:08:05.269Z,780
2016-09-13T07:09:05.311Z,800
2016-09-13T07:10:05.015Z,800
2016-09-13T07:11:05.055Z,805
2016-09-13T07:12:05.391Z,815
2016-09-13T07:13:05.117Z,805
2016-09-13T07:14:04.863Z,800
2016-09-13T07:15:05.177Z,805
2016-09-13T07:16:05.522Z,825
2016-09-13T07:17:05.862Z,840
2016-09-13T07:18:05.576Z,850
2016-09-13T07:19:05.906Z,830
2016-09-13T07:20:05.308Z,790
2016-09-13T07:21:05.651Z,805
2016-09-13T07:22:05.699Z,830
2016-09-13T07:23:05.390Z,845
2016-09-13T07:24:05.837Z,850
2016-09-13T07:25:05.512Z,845
2016-09-13T07:26:05.871Z,850
2016-09-13T07:27:05.857Z,850
2016-09-13T07:28:05.937Z,880
2016-09-13T07:29:05.932Z,905
2016-09-13T07:30:05.676Z,900
2016-09-13T07:31:05.978Z,865
2016-09-13T07:32:06.661Z,785
2016-09-13T07:33:05.881Z,570
2016-09-13T07:34:06.386Z,365
2016-09-13T07:35:05.751Z,345
2016-09-13T07:36:05.995Z,325
2016-09-13T07:37:06.539Z,320
2016-09-13T07:38:06.002Z,315
2016-09-13T07:39:06.292Z,310
2016-09-13T07:40:06.321Z,310
2016-09-13T07:41:05.981Z,310
2016-09-13T07:42:06.288Z,305
2016-09-13T07:43:06.318Z,305
2016-09-13T07:44:05.769Z,305
2016-09-13T07:45:06.267Z,305
2016-09-13T07:46:05.781Z,305
2016-09-13T07:47:06.441Z,305
2016-09-13T07:48:06.490Z,305
2016-09-13T07:49:06.690Z,305
2016-09-13T07:50:05.891Z,300
2016-09-13T07:51:06.549Z,300
2016-09-13T07:52:06.647Z,300
2016-09-13T07:53:06.605Z,300
2016-09-13T07:54:06.657Z,300
2016-09-13T07:55:06.682Z,300
2016-09-13T07:56:06.729Z,300
2016-09-13T07:57:06.802Z,300
2016-09-13T07:58:06.752Z,300
2016-09-13T07:59:07.093Z,300
2016-09-13T08:00:06.214Z,300
2016-09-13T08:01:06.512Z,300
2016-09-13T08:02:06.904Z,300
2016-09-13T08:03:07.218Z,300
2016-09-13T08:04:06.960Z,300
2016-09-13T08:05:07.262Z,300
2016-09-13T08:06:06.406Z,300
2016-09-13T08:07:06.729Z,300
2016-09-13T08:08:07.014Z,300
2016-09-13T08:09:06.474Z,300
2016-09-13T08:10:07.404Z,300
2016-09-13T08:11:07.100Z,300
2016-09-13T08:12:07.129Z,300
2016-09-13T08:13:06.872Z,300
2016-09-13T08:14:07.209Z,300
2016-09-13T08:15:06.907Z,300
2016-09-13T08:16:07.244Z,300
2016-09-13T08:17:07.272Z,300
2016-09-13T08:18:06.979Z,300
2016-09-13T08:19:07.663Z,300
2016-09-13T08:20:07.671Z,300
2016-09-13T08:21:07.072Z,300
2016-09-13T08:22:07.095Z,300
2016-09-13T08:23:07.550Z,300
2016-09-13T08:24:07.477Z,300
2016-09-13T08:25:07.186Z,300
2016-09-13T08:26:07.843Z,295
2016-09-13T08:27:07.543Z,295
2016-09-13T08:28:06.946Z,295
2016-09-13T08:29:07.299Z,295
2016-09-13T08:30:07.015Z,295
2016-09-13T08:31:07.972Z,295
2016-09-13T08:32:08.003Z,295
2016-09-13T08:33:08.093Z,295
2016-09-13T08:34:08.404Z,295
2016-09-13T08:35:08.164Z,295
2016-09-13T08:36:07.293Z,290
2016-09-13T08:37:39.830Z,290
2016-09-13T08:38:07.873Z,290
2016-09-13T08:39:07.971Z,290
2016-09-13T08:40:07.362Z,290
2016-09-13T08:41:07.748Z,290
2016-09-13T08:42:07.668Z,295
2016-09-13T08:43:07.702Z,290
2016-09-13T08:44:08.095Z,290
2016-09-13T08:45:07.786Z,290
2016-09-13T08:46:07.864Z,285
2016-09-13T08:47:07.911Z,285
2016-09-13T08:48:08.516Z,285
2016-09-13T08:49:08.186Z,285
2016-09-13T08:50:07.580Z,285
2016-09-13T08:51:07.918Z,285
2016-09-13T08:52:08.248Z,285
2016-09-13T08:53:08.368Z,285
2016-09-13T08:54:08.328Z,285
2016-09-13T08:55:08.394Z,285
2016-09-13T08:56:08.399Z,285
2016-09-13T08:57:08.146Z,285
2016-09-13T08:58:08.460Z,280
2016-09-13T08:59:08.805Z,280
2016-09-13T09:00:08.806Z,280
2016-09-13T09:01:08.259Z,280
2016-09-13T09:02:08.540Z,280
2016-09-13T09:03:08.666Z,280
2016-09-13T09:04:08.576Z,280
2016-09-13T09:05:08.069Z,280
2016-09-13T09:06:08.669Z,280
2016-09-13T09:07:08.674Z,280
2016-09-13T09:08:08.431Z,280
2016-09-13T09:09:08.487Z,275
2016-09-13T09:10:08.775Z,275
2016-09-13T09:11:08.784Z,275
2016-09-13T09:12:08.809Z,275
2016-09-13T09:13:08.231Z,275
2016-09-13T09:14:08.874Z,275
2016-09-13T09:15:08.577Z,275
2016-09-13T09:16:09.064Z,275
2016-09-13T09:17:09.511Z,275
2016-09-13T09:18:09.375Z,275
2016-09-13T09:19:08.707Z,275
2016-09-13T09:20:09.353Z,270
2016-09-13T09:21:09.139Z,270
2016-09-13T09:22:08.797Z,275
2016-09-13T09:23:09.475Z,270
2016-09-13T09:24:09.681Z,270
2016-09-13T09:25:09.669Z,270
2016-09-13T09:26:09.403Z,270
2016-09-13T09:27:08.953Z,270
2016-09-13T09:28:09.351Z,270
2016-09-13T09:29:09.378Z,270
2016-09-13T09:30:09.403Z,270
2016-09-13T09:31:09.109Z,270
2016-09-13T09:32:09.708Z,265
2016-09-13T09:33:09.112Z,265
2016-09-13T09:34:09.458Z,265
2016-09-13T09:35:09.521Z,265
2016-09-13T09:36:08.907Z,265
2016-09-13T09:37:09.555Z,265
2016-09-13T09:38:09.969Z,265
2016-09-13T09:39:41.288Z,265
2016-09-13T09:40:09.469Z,265
2016-09-13T09:41:09.672Z,265
2016-09-13T09:42:09.696Z,265
2016-09-13T09:43:10.072Z,265
2016-09-13T09:44:09.751Z,265
2016-09-13T09:45:09.787Z,265
2016-09-13T09:46:10.194Z,265
2016-09-13T09:47:10.199Z,260
2016-09-13T09:48:10.250Z,260
2016-09-13T09:49:09.601Z,260
2016-09-13T09:50:09.625Z,260
2016-09-13T09:51:09.965Z,260
2016-09-13T09:52:09.695Z,265
2016-09-13T09:53:09.703Z,260
2016-09-13T09:54:09.725Z,260
2016-09-13T09:55:10.084Z,260
2016-09-13T09:56:10.125Z,260
2016-09-13T09:57:10.456Z,260
2016-09-13T09:58:10.160Z,260
2016-09-13T09:59:10.185Z,260
2016-09-13T10:00:10.231Z,260
2016-09-13T10:01:10.645Z,255
2016-09-13T10:02:10.277Z,255
2016-09-13T10:03:09.991Z,255
2016-09-13T10:04:10.640Z,255
2016-09-13T10:05:10.515Z,255
2016-09-13T10:06:09.558Z,255
2016-09-13T10:07:10.100Z,255
2016-09-13T10:08:10.889Z,255
2016-09-13T10:09:10.227Z,255
2016-09-13T10:10:10.565Z,255
2016-09-13T10:11:10.232Z,255
2016-09-13T10:12:10.592Z,250
2016-09-13T10:13:10.928Z,250
2016-09-13T10:14:10.936Z,250
2016-09-13T10:15:10.963Z,250
2016-09-13T10:16:10.684Z,250
2016-09-13T10:17:10.720Z,250
2016-09-13T10:18:11.142Z,250
2016-09-13T10:19:10.769Z,250
2016-09-13T10:20:10.799Z,250
2016-09-13T10:21:10.826Z,245
2016-09-13T10:22:10.889Z,245
2016-09-13T10:23:10.902Z,245
2016-09-13T10:24:10.998Z,245
2016-09-13T10:25:10.970Z,245
2016-09-13T10:26:10.359Z,245
2016-09-13T10:27:11.121Z,245
2016-09-13T10:28:11.420Z,245
2016-09-13T10:29:11.165Z,245
2016-09-13T10:30:10.787Z,245
2016-09-13T10:31:11.461Z,245
2016-09-13T10:32:11.177Z,245
2016-09-13T10:33:11.304Z,245
2016-09-13T10:34:11.433Z,245
2016-09-13T10:35:10.944Z,245
2016-09-13T10:36:11.271Z,245
2016-09-13T10:37:11.749Z,245
2016-09-13T10:38:11.026Z,245
2016-09-13T10:39:11.078Z,240
2016-09-13T10:40:11.399Z,240
2016-09-13T10:41:11.758Z,240
2016-09-13T10:42:11.480Z,240
2016-09-13T10:43:11.499Z,240
2016-09-13T10:44:11.530Z,240
2016-09-13T10:45:12.074Z,240
2016-09-13T10:46:11.656Z,240
2016-09-13T10:47:12.013Z,240
2016-09-13T10:48:11.701Z,240
2016-09-13T10:49:11.680Z,240
2016-09-13T10:50:12.052Z,240
2016-09-13T10:51:11.727Z,240
2016-09-13T10:52:11.483Z,240
2016-09-13T10:53:12.135Z,235
2016-09-13T10:54:11.831Z,235
2016-09-13T10:55:12.156Z,235
2016-09-13T10:56:12.191Z,235
2016-09-13T10:57:12.248Z,235
2016-09-13T10:58:11.969Z,235
2016-09-13T10:59:12.482Z,235
2016-09-13T11:00:12.319Z,235
2016-09-13T11:01:12.166Z,235
2016-09-13T11:02:12.372Z,235
2016-09-13T11:03:12.402Z,235
2016-09-13T11:04:12.461Z,235
2016-09-13T11:05:12.482Z,235
2016-09-13T11:06:12.661Z,235
2016-09-13T11:07:12.345Z,235
2016-09-13T11:08:12.493Z,235
2016-09-13T11:09:12.432Z,230
2016-09-13T11:10:12.939Z,230
2016-09-13T11:11:12.457Z,230
2016-09-13T11:12:12.482Z,230
2016-09-13T11:13:12.939Z,230
2016-09-13T11:14:12.514Z,230
2016-09-13T11:15:12.531Z,230
2016-09-13T11:16:12.950Z,230
2016-09-13T11:17:12.945Z,230
2016-09-13T11:18:12.948Z,230
2016-09-13T11:19:11.718Z,230
2016-09-13T11:20:12.982Z,230
2016-09-13T11:21:12.641Z,230
2016-09-13T11:22:13.022Z,230
2016-09-13T11:23:12.700Z,230
2016-09-13T11:24:12.113Z,230
2016-09-13T11:25:13.111Z,230
2016-09-13T11:26:12.487Z,230
2016-09-13T11:27:13.223Z,230
2016-09-13T11:28:13.018Z,230
2016-09-13T11:29:13.308Z,225
2016-09-13T11:30:13.239Z,225
2016-09-13T11:31:12.652Z,225
2016-09-13T11:32:13.059Z,225
2016-09-13T11:33:13.321Z,225
2016-09-13T11:34:13.348Z,225
2016-09-13T11:35:13.498Z,225
2016-09-13T11:36:13.372Z,225
2016-09-13T11:37:13.192Z,225
2016-09-13T11:38:13.518Z,225
2016-09-13T11:39:13.529Z,225
2016-09-13T11:40:13.540Z,220
2016-09-13T11:41:13.563Z,220
2016-09-13T11:42:13.590Z,220
2016-09-13T11:43:13.306Z,220
2016-09-13T11:44:13.140Z,220
2016-09-13T11:45:13.703Z,220
2016-09-13T11:46:13.407Z,220
2016-09-13T11:47:13.759Z,220
2016-09-13T11:48:13.457Z,220
2016-09-13T11:49:13.810Z,220
2016-09-13T11:50:13.870Z,220
2016-09-13T11:51:13.879Z,220
2016-09-13T11:52:13.904Z,220
2016-09-13T11:53:13.925Z,220
2016-09-13T11:54:13.979Z,220
2016-09-13T11:55:13.997Z,220
2016-09-13T11:56:14.059Z,215
2016-09-13T11:57:14.038Z,215
2016-09-13T11:58:13.769Z,215
2016-09-13T11:59:13.506Z,220
2016-09-13T12:00:14.162Z,220
2016-09-13T12:01:13.877Z,215
2016-09-13T12:02:13.887Z,215
2016-09-13T12:03:14.237Z,215
2016-09-13T12:04:14.276Z,215
2016-09-13T12:05:14.063Z,215
2016-09-13T12:06:14.081Z,220
2016-09-13T12:07:14.421Z,220
2016-09-13T12:08:14.395Z,215
2016-09-13T12:09:14.116Z,220
2016-09-13T12:10:14.439Z,215
2016-09-13T12:11:14.455Z,215
2016-09-13T12:12:13.888Z,215
2016-09-13T12:13:14.541Z,215
2016-09-13T12:14:14.707Z,215
2016-09-13T12:15:14.604Z,215
2016-09-13T12:16:14.420Z,215
2016-09-13T12:17:14.402Z,215
2016-09-13T12:18:14.389Z,220
2016-09-13T12:19:14.792Z,215
2016-09-13T12:20:14.751Z,215
2016-09-13T12:21:14.780Z,215
2016-09-13T12:22:14.821Z,215
2016-09-13T12:23:14.853Z,215
2016-09-13T12:24:14.882Z,215
2016-09-13T12:25:14.647Z,210
2016-09-13T12:26:14.321Z,210
2016-09-13T12:27:14.650Z,215
2016-09-13T12:28:14.693Z,210
2016-09-13T12:29:14.709Z,210
2016-09-13T12:30:14.770Z,215
2016-09-13T12:31:14.447Z,210
2016-09-13T12:32:15.124Z,210
2016-09-13T12:33:15.136Z,210
2016-09-13T12:34:15.223Z,210
2016-09-13T12:35:15.213Z,210
2016-09-13T12:36:14.996Z,210
2016-09-13T12:37:14.969Z,210
2016-09-13T12:38:15.325Z,210
2016-09-13T12:39:15.051Z,210
2016-09-13T12:40:47.033Z,210
2016-09-13T12:41:15.402Z,210
2016-09-13T12:42:14.804Z,210
2016-09-13T12:43:15.128Z,210
2016-09-13T12:44:15.467Z,210
2016-09-13T12:45:14.889Z,210
2016-09-13T12:46:15.229Z,210
2016-09-13T12:47:15.648Z,210
2016-09-13T12:48:15.303Z,210
2016-09-13T12:49:15.328Z,205
2016-09-13T12:50:15.661Z,205
2016-09-13T12:51:15.457Z,205
2016-09-13T12:52:15.481Z,205
2016-09-13T12:53:15.821Z,205
2016-09-13T12:54:47.473Z,205
2016-09-13T12:55:15.928Z,205
2016-09-13T12:56:15.536Z,205
2016-09-13T12:57:16.199Z,205
2016-09-13T12:58:15.302Z,205
2016-09-13T12:59:15.644Z,205
2016-09-13T13:00:15.348Z,205
2016-09-13T13:01:16.050Z,205
2016-09-13T13:02:16.130Z,205
2016-09-13T13:03:15.466Z,205
2016-09-13T13:04:16.156Z,205
2016-09-13T13:05:15.525Z,205
2016-09-13T13:06:16.190Z,205
2016-09-13T13:07:15.755Z,205
2016-09-13T13:08:16.281Z,205
2016-09-13T13:09:16.105Z,205
2016-09-13T13:10:16.220Z,205
2016-09-13T13:11:16.067Z,205
2016-09-13T13:12:16.055Z,205
2016-09-13T13:13:16.449Z,205
2016-09-13T13:14:15.785Z,205
2016-09-13T13:15:16.139Z,205
2016-09-13T13:16:16.264Z,205
2016-09-13T13:17:16.204Z,205
2016-09-13T13:18:16.298Z,205
2016-09-13T13:19:16.568Z,205
2016-09-13T13:20:16.598Z,210
2016-09-13T13:21:16.644Z,205
2016-09-13T13:22:16.509Z,210
2016-09-13T13:23:16.378Z,205
2016-09-13T13:24:16.723Z,205
2016-09-13T13:25:15.969Z,210
2016-09-13T13:26:16.498Z,210
2016-09-13T13:27:15.887Z,210
2016-09-13T13:28:16.874Z,210
2016-09-13T13:29:16.885Z,210
2016-09-13T13:30:15.970Z,210
2016-09-13T13:31:16.416Z,210
2016-09-13T13:32:17.069Z,210
2016-09-13T13:33:17.096Z,210
2016-09-13T13:34:17.206Z,210
2016-09-13T13:35:16.740Z,210
2016-09-13T13:36:16.796Z,205
2016-09-13T13:37:16.818Z,205
2016-09-13T13:38:17.137Z,205
2016-09-13T13:39:16.866Z,205
2016-09-13T13:40:17.207Z,205
2016-09-13T13:41:16.608Z,205
2016-09-13T13:42:17.294Z,205
2016-09-13T13:43:16.974Z,205
2016-09-13T13:44:17.038Z,205
2016-09-13T13:45:17.408Z,205
2016-09-13T13:46:17.078Z,205
2016-09-13T13:47:17.095Z,205
2016-09-13T13:48:16.830Z,205
2016-09-13T13:49:17.485Z,205
2016-09-13T13:50:16.918Z,205
2016-09-13T13:51:16.948Z,205
2016-09-13T13:52:17.277Z,205
2016-09-13T13:53:17.685Z,205
2016-09-13T13:54:17.717Z,205
2016-09-13T13:55:17.688Z,205
2016-09-13T13:56:17.498Z,205
2016-09-13T13:57:17.423Z,205
2016-09-13T13:58:17.762Z,205
2016-09-13T13:59:17.492Z,205
2016-09-13T14:00:17.825Z,205
2016-09-13T14:01:48.998Z,205
2016-09-13T14:02:30.820Z,205
2016-09-13T14:03:31.528Z,205
2016-09-13T14:04:31.013Z,205
2016-09-13T14:05:31.220Z,205
2016-09-13T14:06:31.356Z,205
2016-09-13T14:07:31.638Z,205
2016-09-13T14:08:31.165Z,200